Terminal Aerodrome Forecast
Issued by NWS

Home | Current Version | Previous Version | Text Only | Print | Product List | Glossary On
Versions: 1 2 3 4 5 6 7 8 9 10 11 12
000
FTUS45 KTWC 181120
TAFOLS
TAF
KOLS 181120Z 1812/1912 VRB03KT P6SM SCT250
     FM182000 27007KT P6SM SCT090 SCT250
     FM190300 10005KT P6SM SCT100 BKN200=

USA.gov is the U.S. government's official web portal to all federal, state and local government web resources and services.